Terminal Aerodrome Forecast
Issued by NWS

Home | Current Version | Previous Version | Text Only | Print | Product List | Glossary Off
Versions: 1 2 3 4 5 6 7 8 9 10 11 12 13 14 15 16 17 18 19 20 21 22 23 24 25

759
FTUS43 KGRB 180521
TAFAUW
TAF
KAUW 180521Z 1806/1906 00000KT 2SM BR OVC007
      TEMPO 1806/1810 1SM -FZDZSN BR OVC004
     FM181000 VRB03KT 2SM BR OVC003
     FM181500 23005KT 5SM BR BKN003
     FM181700 22008KT P6SM BKN012
     FM190000 22008KT P6SM BKN015
     FM190300 24009KT P6SM BKN035
     FM190500 25009KT P6SM BKN030=

USA.gov is the U.S. government's official web portal to all federal, state and local government web resources and services.